createdAt,value
2023-03-11T00:00:47.407Z,92993.00
2023-03-11T00:04:46.560Z,92984.00
2023-03-11T00:08:46.518Z,92978.00
2023-03-11T00:12:46.515Z,92984.00
2023-03-11T00:16:46.596Z,92989.00
2023-03-11T00:20:46.644Z,92999.00
2023-03-11T00:24:46.614Z,92993.00
2023-03-11T00:28:46.661Z,92999.00
2023-03-11T00:32:46.721Z,92997.00
2023-03-11T00:36:46.758Z,93003.00
2023-03-11T00:40:46.801Z,93001.00
2023-03-11T00:44:46.810Z,93019.00
2023-03-11T00:48:46.831Z,93025.00
2023-03-11T00:52:46.847Z,93015.00
2023-03-11T00:56:46.880Z,93005.00
2023-03-11T01:00:46.892Z,93007.00
2023-03-11T01:04:46.946Z,93015.00
2023-03-11T01:08:46.894Z,93019.00
2023-03-11T01:12:46.929Z,93009.00
2023-03-11T01:16:46.958Z,93019.00
2023-03-11T01:20:46.957Z,93005.00
2023-03-11T01:24:46.978Z,92991.00
2023-03-11T01:28:47.062Z,92997.00
2023-03-11T01:32:47.154Z,93001.00
2023-03-11T01:36:47.161Z,92986.00
2023-03-11T01:40:47.233Z,92978.00
2023-03-11T01:44:47.259Z,92987.00
2023-03-11T01:48:47.374Z,92982.00
2023-03-11T01:52:47.464Z,92995.00
2023-03-11T01:56:47.537Z,92984.00
2023-03-11T02:00:47.556Z,92984.00
2023-03-11T02:04:47.630Z,92993.00
2023-03-11T02:08:47.658Z,92984.00
2023-03-11T02:12:47.681Z,92984.00
2023-03-11T02:16:47.809Z,92982.00
2023-03-11T02:20:47.783Z,92993.00
2023-03-11T02:24:47.861Z,93003.00
2023-03-11T02:28:48.347Z,92999.00
2023-03-11T02:32:48.101Z,93009.00
2023-03-11T02:36:48.113Z,93001.00
2023-03-11T02:40:48.173Z,92995.00
2023-03-11T02:44:48.250Z,92991.00
2023-03-11T02:48:48.323Z,93009.00
2023-03-11T02:52:48.389Z,93023.00
2023-03-11T02:56:48.436Z,93017.00
2023-03-11T03:00:48.530Z,93017.00
2023-03-11T03:04:48.519Z,93015.00
2023-03-11T03:08:48.620Z,93011.00
2023-03-11T03:12:48.674Z,93017.00
2023-03-11T03:16:48.787Z,93037.00
2023-03-11T03:20:48.745Z,93031.00
2023-03-11T03:24:48.785Z,93039.00
2023-03-11T03:28:48.922Z,93054.00
2023-03-11T03:32:49.081Z,93050.00
2023-03-11T03:36:49.121Z,93046.00
2023-03-11T03:40:49.197Z,93039.00
2023-03-11T03:44:49.343Z,93041.00
2023-03-11T03:48:49.464Z,93064.00
2023-03-11T03:52:49.630Z,93080.00
2023-03-11T03:56:49.704Z,93087.00
2023-03-11T04:00:49.784Z,93089.00
2023-03-11T04:04:49.858Z,93091.00
2023-03-11T04:08:49.957Z,93080.00
2023-03-11T04:12:50.057Z,93068.00
2023-03-11T04:16:50.217Z,93074.00
2023-03-11T04:20:50.248Z,93074.00
2023-03-11T04:24:50.308Z,93089.00
2023-03-11T04:28:50.400Z,93093.00
2023-03-11T04:32:50.468Z,93097.00
2023-03-11T04:36:50.589Z,93105.00
2023-03-11T04:40:50.674Z,93107.00
2023-03-11T04:44:50.955Z,93121.00
2023-03-11T04:48:50.808Z,93117.00
2023-03-11T04:52:50.878Z,93115.00
2023-03-11T04:56:50.972Z,93123.00
2023-03-11T05:00:51.057Z,93125.00
2023-03-11T05:04:51.142Z,93126.00
2023-03-11T05:08:51.129Z,93134.00
2023-03-11T05:12:51.310Z,93142.00
2023-03-11T05:16:51.912Z,93154.00
2023-03-11T05:20:51.558Z,93158.00
2023-03-11T05:24:51.643Z,93164.00
2023-03-11T05:28:51.711Z,93172.00
2023-03-11T05:32:52.012Z,93178.00
2023-03-11T05:36:51.922Z,93176.00
2023-03-11T05:40:52.095Z,93170.00
2023-03-11T05:44:52.181Z,93178.00
2023-03-11T05:48:52.252Z,93181.00
2023-03-11T05:52:52.362Z,93180.00
2023-03-11T05:56:52.456Z,93189.00
2023-03-11T06:00:52.656Z,93199.00
2023-03-11T06:04:52.849Z,93213.00
2023-03-11T06:08:52.936Z,93215.00
2023-03-11T06:12:53.113Z,93223.00
2023-03-11T06:16:53.197Z,93211.00
2023-03-11T06:20:53.393Z,93211.00
2023-03-11T06:24:53.650Z,93215.00
2023-03-11T06:28:53.721Z,93219.00
2023-03-11T06:32:54.521Z,93227.00
2023-03-11T06:36:54.106Z,93227.00
2023-03-11T06:40:54.309Z,93228.00
2023-03-11T06:44:54.479Z,93232.00
2023-03-11T06:48:54.646Z,93236.00
2023-03-11T06:52:54.837Z,93248.00
2023-03-11T06:56:55.124Z,93252.00
2023-03-11T07:00:55.324Z,93258.00
2023-03-11T07:04:55.350Z,93258.00
2023-03-11T07:08:55.579Z,93260.00
2023-03-11T07:12:55.705Z,93268.00
2023-03-11T07:16:55.983Z,93268.00
2023-03-11T07:20:56.080Z,93272.00
2023-03-11T07:24:56.248Z,93287.00
2023-03-11T07:28:56.409Z,93287.00
2023-03-11T07:32:56.643Z,93293.00
2023-03-11T07:36:56.772Z,93297.00
2023-03-11T07:40:56.952Z,93303.00
2023-03-11T07:44:57.098Z,93315.00
2023-03-11T07:48:57.255Z,93305.00
2023-03-11T07:52:57.444Z,93309.00
2023-03-11T07:56:57.557Z,93313.00
2023-03-11T08:00:57.745Z,93319.00
2023-03-11T08:04:57.885Z,93317.00
2023-03-11T08:08:58.009Z,93330.00
2023-03-11T08:12:58.172Z,93325.00
2023-03-11T08:16:58.298Z,93332.00
2023-03-11T08:20:58.448Z,93336.00
2023-03-11T08:24:58.550Z,93346.00
2023-03-11T08:28:58.673Z,93346.00
2023-03-11T08:32:58.868Z,93344.00
2023-03-11T08:36:58.947Z,93330.00
2023-03-11T08:40:59.067Z,93346.00
2023-03-11T08:44:59.197Z,93348.00
2023-03-11T08:49:01.069Z,93334.00
2023-03-11T08:52:59.432Z,93332.00
2023-03-11T08:56:59.526Z,93323.00
2023-03-11T09:00:59.649Z,93336.00
2023-03-11T09:04:59.770Z,93344.00
2023-03-11T09:08:59.853Z,93336.00
2023-03-11T09:12:59.991Z,93325.00
2023-03-11T09:17:00.112Z,93325.00
2023-03-11T09:21:00.257Z,93330.00
2023-03-11T09:25:00.330Z,93329.00
2023-03-11T09:29:00.515Z,93325.00
2023-03-11T09:33:00.518Z,93329.00
2023-03-11T09:37:00.607Z,93352.00
2023-03-11T09:41:00.711Z,93350.00
2023-03-11T09:45:01.042Z,93356.00
2023-03-11T09:49:00.961Z,93356.00
2023-03-11T09:53:01.041Z,93344.00
2023-03-11T09:57:01.114Z,93348.00
2023-03-11T10:01:01.189Z,93360.00
2023-03-11T10:05:01.296Z,93356.00
2023-03-11T10:09:01.545Z,93354.00
2023-03-11T10:13:01.432Z,93354.00
2023-03-11T10:17:01.519Z,93366.00
2023-03-11T10:21:01.591Z,93362.00
2023-03-11T10:25:01.650Z,93356.00
2023-03-11T10:29:01.732Z,93360.00
2023-03-11T10:33:01.822Z,93358.00
2023-03-11T10:37:01.940Z,93356.00
2023-03-11T10:41:02.045Z,93366.00
2023-03-11T10:45:02.084Z,93366.00
2023-03-11T10:49:02.204Z,93366.00
2023-03-11T10:53:02.221Z,93366.00
2023-03-11T10:57:02.325Z,93366.00
2023-03-11T11:01:02.478Z,93364.00
2023-03-11T11:05:02.540Z,93364.00
2023-03-11T11:09:02.593Z,93360.00
2023-03-11T11:13:02.688Z,93354.00
2023-03-11T11:17:02.754Z,93354.00
2023-03-11T11:21:02.736Z,93350.00
2023-03-11T11:25:02.855Z,93356.00
2023-03-11T11:29:02.784Z,93356.00
2023-03-11T11:33:02.861Z,93352.00
2023-03-11T11:37:03.115Z,93360.00
2023-03-11T11:41:02.810Z,93362.00
2023-03-11T11:45:02.783Z,93354.00
2023-03-11T11:49:02.803Z,93358.00
2023-03-11T11:53:02.809Z,93348.00
2023-03-11T11:57:02.797Z,93336.00
2023-03-11T12:01:02.956Z,93321.00
2023-03-11T12:05:03.079Z,93311.00
2023-03-11T12:09:03.266Z,93303.00
2023-03-11T12:13:03.585Z,93297.00
2023-03-11T12:17:04.323Z,93295.00
2023-03-11T12:21:03.435Z,93289.00
2023-03-11T12:25:03.381Z,93289.00
2023-03-11T12:29:03.374Z,93282.00
2023-03-11T12:33:03.321Z,93282.00
2023-03-11T12:37:03.380Z,93268.00
2023-03-11T12:41:03.429Z,93262.00
2023-03-11T12:45:03.449Z,93264.00
2023-03-11T12:49:03.396Z,93256.00
2023-03-11T12:53:03.354Z,93254.00
2023-03-11T12:57:03.335Z,93254.00
2023-03-11T13:01:03.273Z,93250.00
2023-03-11T13:05:03.262Z,93246.00
2023-03-11T13:09:03.193Z,93244.00
2023-03-11T13:13:03.149Z,93250.00
2023-03-11T13:17:03.164Z,93244.00
2023-03-11T13:21:03.102Z,93248.00
2023-03-11T13:25:03.091Z,93244.00
2023-03-11T13:29:03.256Z,93244.00
2023-03-11T13:33:03.442Z,93244.00
2023-03-11T13:37:03.596Z,93244.00
2023-03-11T13:41:03.853Z,93248.00
2023-03-11T13:45:03.954Z,93252.00
2023-03-11T13:49:04.153Z,93260.00
2023-03-11T13:53:04.318Z,93266.00
2023-03-11T13:57:04.523Z,93266.00
2023-03-11T14:01:04.750Z,93270.00
2023-03-11T14:05:04.909Z,93268.00
2023-03-11T14:09:05.073Z,93272.00
2023-03-11T14:13:05.225Z,93283.00
2023-03-11T14:17:05.320Z,93287.00
2023-03-11T14:21:05.502Z,93287.00
2023-03-11T14:25:05.656Z,93299.00
2023-03-11T14:29:05.791Z,93301.00
2023-03-11T14:33:05.934Z,93303.00
2023-03-11T14:37:06.006Z,93299.00
2023-03-11T14:41:06.213Z,93309.00
2023-03-11T14:45:06.339Z,93315.00
2023-03-11T14:49:06.438Z,93327.00
2023-03-11T14:53:06.567Z,93332.00
2023-03-11T14:57:06.706Z,93336.00
2023-03-11T15:01:06.924Z,93346.00
2023-03-11T15:05:07.129Z,93358.00
2023-03-11T15:09:07.324Z,93366.00
2023-03-11T15:13:07.516Z,93364.00
2023-03-11T15:17:07.709Z,93367.00
2023-03-11T15:21:07.697Z,93366.00
2023-03-11T15:25:07.662Z,93364.00
2023-03-11T15:29:07.637Z,93367.00
2023-03-11T15:33:07.699Z,93369.00
2023-03-11T15:37:07.558Z,93375.00
2023-03-11T15:41:07.565Z,93389.00
2023-03-11T15:45:07.490Z,93395.00
2023-03-11T15:49:07.450Z,93403.00
2023-03-11T15:53:07.426Z,93415.00
2023-03-11T15:57:07.448Z,93426.00
2023-03-11T16:01:07.394Z,93432.00
2023-03-11T16:05:07.595Z,93436.00
2023-03-11T16:09:07.345Z,93440.00
2023-03-11T16:13:07.295Z,93442.00
2023-03-11T16:17:07.243Z,93452.00
2023-03-11T16:21:07.210Z,93468.00
2023-03-11T16:25:07.217Z,93470.00
2023-03-11T16:29:18.483Z,93477.00
2023-03-11T16:33:08.186Z,93489.00
2023-03-11T16:37:07.104Z,93497.00
2023-03-11T16:41:07.219Z,93505.00
2023-03-11T16:45:07.371Z,93505.00
2023-03-11T16:49:07.451Z,93491.00
2023-03-11T16:53:07.447Z,93509.00
2023-03-11T16:57:07.595Z,93515.00
2023-03-11T17:01:07.614Z,93526.00
2023-03-11T17:05:07.716Z,93517.00
2023-03-11T17:09:07.676Z,93523.00
2023-03-11T17:13:07.716Z,93536.00
2023-03-11T17:17:07.748Z,93544.00
2023-03-11T17:21:07.742Z,93544.00
2023-03-11T17:25:07.783Z,93552.00
2023-03-11T17:29:07.779Z,93564.00
2023-03-11T17:33:07.771Z,93577.00
2023-03-11T17:37:07.770Z,93585.00
2023-03-11T17:41:07.714Z,93603.00
2023-03-11T17:45:07.718Z,93613.00
2023-03-11T17:49:07.706Z,93622.00
2023-03-11T17:53:07.778Z,93626.00
2023-03-11T17:57:07.703Z,93628.00
2023-03-11T18:01:07.722Z,93640.00
2023-03-11T18:05:07.792Z,93644.00
2023-03-11T18:09:07.793Z,93654.00
2023-03-11T18:13:07.817Z,93668.00
2023-03-11T18:17:07.879Z,93677.00
2023-03-11T18:21:07.892Z,93687.00
2023-03-11T18:25:07.939Z,93695.00
2023-03-11T18:29:08.040Z,93711.00
2023-03-11T18:33:08.035Z,93715.00
2023-03-11T18:37:08.091Z,93720.00
2023-03-11T18:41:08.179Z,93732.00
2023-03-11T18:45:08.214Z,93738.00
2023-03-11T18:49:08.217Z,93754.00
2023-03-11T18:53:08.308Z,93752.00
2023-03-11T18:57:08.337Z,93756.00
2023-03-11T19:01:08.415Z,93758.00
2023-03-11T19:05:08.458Z,93760.00
2023-03-11T19:09:08.473Z,93764.00
2023-03-11T19:13:08.527Z,93769.00
2023-03-11T19:17:08.574Z,93769.00
2023-03-11T19:21:08.629Z,93779.00
2023-03-11T19:25:08.704Z,93783.00
2023-03-11T19:29:08.743Z,93793.00
2023-03-11T19:33:08.760Z,93797.00
2023-03-11T19:37:08.824Z,93793.00
2023-03-11T19:41:08.867Z,93799.00
2023-03-11T19:45:08.970Z,93807.00
2023-03-11T19:49:08.975Z,93811.00
2023-03-11T19:53:09.068Z,93815.00
2023-03-11T19:57:09.115Z,93817.00
2023-03-11T20:01:09.196Z,93824.00
2023-03-11T20:05:09.245Z,93826.00
2023-03-11T20:09:09.267Z,93828.00
2023-03-11T20:13:09.360Z,93824.00
2023-03-11T20:17:09.447Z,93838.00
2023-03-11T20:21:09.477Z,93840.00
2023-03-11T20:25:09.549Z,93838.00
2023-03-11T20:29:09.631Z,93836.00
2023-03-11T20:33:09.686Z,93838.00
2023-03-11T20:37:09.706Z,93846.00
2023-03-11T20:41:09.830Z,93859.00
2023-03-11T20:45:09.931Z,93863.00
2023-03-11T20:49:09.890Z,93865.00
2023-03-11T20:53:09.927Z,93869.00
2023-03-11T20:57:10.002Z,93871.00
2023-03-11T21:01:10.088Z,93871.00
2023-03-11T21:05:10.266Z,93867.00
2023-03-11T21:09:10.223Z,93873.00
2023-03-11T21:13:10.522Z,93871.00
2023-03-11T21:17:10.447Z,93873.00
2023-03-11T21:21:10.560Z,93879.00
2023-03-11T21:25:10.529Z,93883.00
2023-03-11T21:29:10.601Z,93887.00
2023-03-11T21:33:10.730Z,93891.00
2023-03-11T21:37:10.859Z,93887.00
2023-03-11T21:41:10.939Z,93891.00
2023-03-11T21:45:11.017Z,93893.00
2023-03-11T21:49:11.068Z,93895.00
2023-03-11T21:53:11.323Z,93895.00
2023-03-11T21:57:11.172Z,93901.00
2023-03-11T22:01:11.356Z,93899.00
2023-03-11T22:05:11.300Z,93903.00
2023-03-11T22:09:11.381Z,93901.00
2023-03-11T22:13:11.600Z,93899.00
2023-03-11T22:17:11.601Z,93905.00
2023-03-11T22:21:11.653Z,93907.00
2023-03-11T22:25:11.636Z,93911.00
2023-03-11T22:29:13.684Z,93911.00
2023-03-11T22:33:11.832Z,93916.00
2023-03-11T22:37:12.384Z,93912.00
2023-03-11T22:41:12.031Z,93914.00
2023-03-11T22:45:12.077Z,93918.00
2023-03-11T22:49:12.184Z,93924.00
2023-03-11T22:53:12.303Z,93924.00
2023-03-11T22:57:12.381Z,93934.00
2023-03-11T23:01:12.517Z,93934.00
2023-03-11T23:05:12.548Z,93936.00
2023-03-11T23:09:12.651Z,93934.00
2023-03-11T23:13:12.725Z,93940.00
2023-03-11T23:17:12.899Z,93942.00
2023-03-11T23:21:12.935Z,93940.00
2023-03-11T23:25:13.026Z,93944.00
2023-03-11T23:29:13.076Z,93950.00
2023-03-11T23:33:13.214Z,93950.00
2023-03-11T23:37:13.310Z,93956.00
2023-03-11T23:41:13.358Z,93958.00
2023-03-11T23:45:13.453Z,93959.00
2023-03-11T23:49:13.526Z,93956.00
2023-03-11T23:53:13.606Z,93959.00
2023-03-11T23:57:13.759Z,93967.00
